Nearby METAR Reports

 

KNUQ - Moffett Nas/Mtn, California, USA
Distance from station: N 9mi, 14km
Updated: Tue, 22-Sep-2020 6:55am PDT
NOT Current
Clear
Clear
 Wind from SE
Wind: SE 3 mph , 6 km/h
Temperature: 59°F , 15°C
Dew Point: 57°F , 14°C
Humidity: 94%
Barometer: 30.02 inHg , 1016.6 hPa
Clouds: Clear
Visibility: 10 miles , 16 km
2020/09/22 13:55 KNUQ 221355Z AUTO 14003KT 10SM CLR 15/14 A3002 RMK AO2
KSJC - San Jose, California, USA
Distance from station: NE 9mi, 14km
Updated: Tue, 22-Sep-2020 3:53pm PDT
Few Clouds
Few Clouds
 Wind from NNW
Wind: NNW 13 mph , 20 km/h
Temperature: 79°F , 26°C
Dew Point: 52°F , 11°C
Humidity: 39%
Barometer: 30.02 inHg , 1016.6 hPa
Clouds: Few Clouds
Visibility: 10 miles , 16 km
Cloud details: Few Clouds 5500 ft
2020/09/22 22:53 KSJC 222253Z 33011KT 10SM FEW055 26/11 A3002 RMK AO2 SLP166 T02610106
 
KRHV - San Jose/Reid, California, USA
Distance from station: ENE 12mi, 19km
Updated: Tue, 22-Sep-2020 3:52pm PDT
Clear
Clear
 Wind from NW
Wind: NW 13 mph , 20 km/h
Temperature: 82°F , 28°C
Dew Point: 46°F , 8°C
Humidity: 28%
Barometer: 30.02 inHg , 1016.6 hPa
Clouds: Clear
Visibility: 10 miles , 16 km
2020/09/22 22:52 KRHV 222252Z 32011KT 10SM SKC 28/08 A3002
KPAO - Palo Alto, California, USA
Distance from station: NNW 14mi, 23km
Updated: Tue, 22-Sep-2020 3:47pm PDT
Clear
Clear
 Wind from NNW
Wind: NNW 16 mph , 26 km/h
Temperature: 73°F , 23°C
Dew Point: 61°F , 16°C
Humidity: 65%
Barometer: 30.03 inHg , 1016.9 hPa
Clouds: Clear
Visibility: 10 miles , 16 km
2020/09/22 22:47 KPAO 222247Z 34014KT 10SM SKC 23/16 A3003
 
KSQL - San Carlos Airpo, California, USA
Distance from station: NW 21mi, 34km
Updated: Tue, 22-Sep-2020 3:58pm PDT
Clear
Clear
 Wind from W
Wind: W 10 mph , 17 km/h
Temperature: 81°F , 27°C
Dew Point: 50°F , 10°C
Humidity: 34%
Barometer: 30.04 inHg , 1017.3 hPa
Clouds: Clear
Visibility: 10 miles , 16 km
2020/09/22 22:58 KSQL 222258Z 26009KT 10SM SKC 27/10 A3004
KWVI - Watsonville, California, USA
Distance from station: SSE 27mi, 44km
Updated: Tue, 22-Sep-2020 3:53pm PDT
Clear
Clear
 Wind from S
Wind: S 8 mph , 13 km/h
Temperature: 72°F , 22°C
Dew Point: 59°F , 15°C
Humidity: 65%
Barometer: 30.03 inHg , 1016.9 hPa
Clouds: Clear
Visibility: 10 miles , 16 km
2020/09/22 22:53 KWVI 222253Z AUTO 17007KT 10SM CLR 22/15 A3003 RMK AO2 SLP168 T02170150
 
KHWD - Hayward, California, USA
Distance from station: N 28mi, 44km
Updated: Tue, 22-Sep-2020 3:54pm PDT
Clear
Clear
 Wind from W
Wind: W 9 mph , 15 km/h
Temperature: 73°F , 23°C
Dew Point: 55°F , 13°C
Humidity: 53%
Barometer: 30.04 inHg , 1017.3 hPa
Clouds: Clear
Visibility: 10 miles , 16 km
2020/09/22 22:54 KHWD 222254Z 28008KT 10SM CLR 23/13 A3004 RMK AO2 SLP181 T02280128
KSFO - San Francisco, California, USA
Distance from station: NW 30mi, 49km
Updated: Tue, 22-Sep-2020 3:56pm PDT
Few Clouds
Few Clouds
 Wind from W
Wind: W 21 mph , 33 km/h
Temperature: 72°F , 22°C
Dew Point: 55°F , 13°C
Humidity: 57%
Barometer: 30.04 inHg , 1017.3 hPa
Clouds: Few Clouds
Visibility: 10 miles , 16 km
Cloud details: Few Clouds 1000 ft
2020/09/22 22:56 KSFO 222256Z 28018KT 10SM FEW010 22/13 A3004 RMK AO2 SLP171 T02170128
 
KHAF - Half Moon Bay, California, USA
Distance from station: WNW 31mi, 50km
Updated: Tue, 22-Sep-2020 4:15pm PDT
Clear
Clear
 Wind from NNW
Wind: NNW 13 mph , 20 km/h
Temperature: 64°F , 18°C
Dew Point: 57°F , 14°C
Humidity: 78%
Barometer: 30.08 inHg , 1018.6 hPa
Clouds: Clear
Visibility: 9 miles , 14 km
2020/09/22 23:15 KHAF 222315Z AUTO 34011KT 9SM CLR 18/14 A3008 RMK AO2
KOAK - Oakland, California, USA
Distance from station: NNW 31mi, 50km
Updated: Tue, 22-Sep-2020 3:53pm PDT
Few Clouds
Few Clouds
 Wind from W
Wind: W 10 mph , 17 km/h
Temperature: 72°F , 22°C
Dew Point: 55°F , 13°C
Humidity: 57%
Barometer: 30.04 inHg , 1017.3 hPa
Clouds: Few Clouds
Visibility: 10 miles , 16 km
Cloud details: Few Clouds 1400 ft
2020/09/22 22:53 KOAK 222253Z 28009KT 10SM FEW014 22/13 A3004 RMK AO2 SLP173 T02220133
 
KLVK - Livermore, California, USA
Distance from station: NNE 31mi, 51km
Updated: Tue, 22-Sep-2020 3:53pm PDT
Clear
Clear
 Wind from W
Wind: W 14 mph , 22 km/h
Temperature: 84°F , 29°C
Dew Point: 36°F , 2°C
Humidity: 18%
Barometer: 30.01 inHg , 1016.3 hPa
Clouds: Clear
Visibility: 10 miles , 16 km
2020/09/22 22:53 KLVK 222253Z 28012KT 10SM CLR 29/02 A3001 RMK AO2 SLP159 T02890017
KCVH - Hollister Muni, California, USA
Distance from station: SE 42mi, 68km
Updated: Tue, 22-Sep-2020 4:15pm PDT
Clear
Clear
 Wind from WSW
Wind: WSW 17 mph , 28 km/h
Temperature: 84°F , 29°C
Dew Point: 50°F , 10°C
Humidity: 31%
Barometer: 30.00 inHg , 1015.9 hPa
Clouds: Clear
Visibility: 10 miles , 16 km
2020/09/22 23:15 KCVH 222315Z AUTO 24015KT 10SM CLR 29/10 A3000 RMK A01
 
KSNS - Salinas, California, USA
Distance from station: SSE 48mi, 77km
Updated: Tue, 22-Sep-2020 3:53pm PDT
Clear
Clear
 Wind from WNW
Wind: WNW 14 mph , 22 km/h
Temperature: 70°F , 21°C
Dew Point: 57°F , 14°C
Humidity: 64%
Barometer: 30.04 inHg , 1017.3 hPa
Clouds: Clear
Visibility: 10 miles , 16 km
2020/09/22 22:53 KSNS 222253Z 30012KT 10SM CLR 21/14 A3004 RMK AO2 SLP179 T02110139
KMRY - Monterey, California, USA
Distance from station: SSE 49mi, 78km
Updated: Tue, 22-Sep-2020 3:54pm PDT
Clear
Clear
 Wind from WNW
Wind: WNW 8 mph , 13 km/h
Temperature: 68°F , 20°C
Dew Point: 57°F , 14°C
Humidity: 69%
Barometer: 30.06 inHg , 1017.9 hPa
Clouds: Clear
Visibility: 10 miles , 16 km
2020/09/22 22:54 KMRY 222254Z 30007KT 10SM CLR 20/14 A3006 RMK AO2 SLPNO T02000139 $
 
KCCR - Concord, California, USA
Distance from station: N 50mi, 81km
Updated: Tue, 22-Sep-2020 3:53pm PDT
Smoke, Clear
Smoke, Clear
 Wind from W
Wind: W 10 mph , 17 km/h
Temperature: 86°F , 30°C
Dew Point: 39°F , 4°C
Humidity: 19%
Barometer: 29.99 inHg , 1015.6 hPa
Summary: Smoke
Clouds: Clear
Visibility: 10 miles , 16 km
2020/09/22 22:53 KCCR 222253Z 27009KT 10SM FU CLR 30/04 A2999 RMK AO2 SLP143 T03000039

Metar display script from Saratoga-Weather.org